createdAt,value
2023-01-23T00:00:19.464Z,44.90
2023-01-23T00:03:21.378Z,43.20
2023-01-23T00:06:18.217Z,38.40
2023-01-23T00:09:11.215Z,43.10
2023-01-23T00:12:05.436Z,36.70
2023-01-23T00:14:58.656Z,39.30
2023-01-23T00:17:42.655Z,42.60
2023-01-23T00:20:30.708Z,40.10
2023-01-23T00:23:23.534Z,38.70
2023-01-23T00:26:18.722Z,43.90
2023-01-23T00:29:11.683Z,39.00
2023-01-23T00:32:05.117Z,29.80
2023-01-23T00:34:58.772Z,26.70
2023-01-23T00:37:52.885Z,27.00
2023-01-23T00:40:38.391Z,26.60
2023-01-23T00:43:24.348Z,22.60
2023-01-23T00:46:17.529Z,21.50
2023-01-23T00:49:10.028Z,21.70
2023-01-23T00:52:02.963Z,22.80
2023-01-23T00:54:56.114Z,22.90
2023-01-23T00:57:48.861Z,25.10
2023-01-23T01:00:42.295Z,24.30
2023-01-23T01:03:35.216Z,25.90
2023-01-23T01:06:29.986Z,42.50
2023-01-23T01:09:22.957Z,52.70
2023-01-23T01:12:16.528Z,52.20
2023-01-23T01:15:12.192Z,25.10
2023-01-23T01:18:06.544Z,54.90
2023-01-23T01:20:52.759Z,38.30
2023-01-23T01:23:40.278Z,32.40
2023-01-23T01:26:33.556Z,39.20
2023-01-23T01:29:26.886Z,53.30
2023-01-23T01:32:19.732Z,29.70
2023-01-23T01:35:14.960Z,30.60
2023-01-23T01:38:00.682Z,42.40
2023-01-23T01:40:52.831Z,41.80
2023-01-23T01:43:46.417Z,44.70
2023-01-23T01:46:41.241Z,34.20
2023-01-23T01:49:35.529Z,38.20
2023-01-23T01:52:23.607Z,36.60
2023-01-23T01:55:16.698Z,36.30
2023-01-23T01:58:02.267Z,36.60
2023-01-23T02:00:55.489Z,38.20
2023-01-23T02:03:51.752Z,38.60
2023-01-23T02:06:38.731Z,36.10
2023-01-23T02:09:33.787Z,46.40
2023-01-23T02:12:28.330Z,44.70
2023-01-23T02:15:24.521Z,34.40
2023-01-23T02:18:10.320Z,30.60
2023-01-23T02:21:07.585Z,32.10
2023-01-23T02:24:19.744Z,31.90
2023-01-23T02:27:12.865Z,31.80
2023-01-23T02:29:58.776Z,31.20
2023-01-23T02:32:51.766Z,31.50
2023-01-23T02:35:44.629Z,31.50
2023-01-23T02:38:42.409Z,34.00
2023-01-23T02:41:37.451Z,36.10
2023-01-23T02:44:32.094Z,32.40
2023-01-23T02:47:25.517Z,34.50
2023-01-23T02:50:19.211Z,31.10
2023-01-23T02:53:13.611Z,32.20
2023-01-23T02:56:09.042Z,31.30
2023-01-23T02:59:20.190Z,34.80
2023-01-23T03:02:04.338Z,37.60
2023-01-23T03:04:57.300Z,36.80
2023-01-23T03:07:50.208Z,35.70
2023-01-23T03:10:34.572Z,29.40
2023-01-23T03:13:27.496Z,26.80
2023-01-23T03:16:21.683Z,30.30
2023-01-23T03:19:14.586Z,29.10
2023-01-23T03:22:09.503Z,29.40
2023-01-23T03:24:57.935Z,28.30
2023-01-23T03:27:52.320Z,23.80
2023-01-23T03:30:45.356Z,26.20
2023-01-23T03:33:31.580Z,24.30
2023-01-23T03:36:18.407Z,23.80
2023-01-23T03:39:28.929Z,23.80
2023-01-23T03:42:21.977Z,23.30
2023-01-23T03:45:16.287Z,21.10
2023-01-23T03:48:09.813Z,26.90
2023-01-23T03:50:56.776Z,25.10
2023-01-23T03:53:49.918Z,24.40
2023-01-23T03:56:36.587Z,39.90
2023-01-23T03:59:22.724Z,60.70
2023-01-23T04:02:15.867Z,60.40
2023-01-23T04:05:01.804Z,54.80
2023-01-23T04:07:54.770Z,31.80
2023-01-23T04:10:48.532Z,23.50
2023-01-23T04:13:41.583Z,23.90
2023-01-23T04:16:34.875Z,24.20
2023-01-23T04:19:21.227Z,25.90
2023-01-23T04:22:14.153Z,22.60
2023-01-23T04:25:06.743Z,25.00
2023-01-23T04:27:59.753Z,26.00
2023-01-23T04:30:53.686Z,25.50
2023-01-23T04:33:49.641Z,30.60
2023-01-23T04:36:44.000Z,31.30
2023-01-23T04:39:37.049Z,27.70
2023-01-23T04:42:23.710Z,27.20
2023-01-23T04:45:28.733Z,25.50
2023-01-23T04:48:22.537Z,29.70
2023-01-23T04:51:15.649Z,28.00
2023-01-23T04:54:10.247Z,30.30
2023-01-23T04:57:03.515Z,33.30
2023-01-23T04:59:58.121Z,31.20
2023-01-23T05:02:47.153Z,31.40
2023-01-23T05:05:40.616Z,27.70
2023-01-23T05:08:33.690Z,26.10
2023-01-23T05:11:29.420Z,28.50
2023-01-23T05:14:24.472Z,25.60
2023-01-23T05:17:02.825Z,26.60
2023-01-23T05:19:52.581Z,30.10
2023-01-23T05:22:39.589Z,32.10
2023-01-23T05:25:27.420Z,31.90
2023-01-23T05:28:22.225Z,29.40
2023-01-23T05:31:15.070Z,32.10
2023-01-23T05:34:08.202Z,32.00
2023-01-23T05:37:01.427Z,30.10
2023-01-23T05:39:54.883Z,30.40
2023-01-23T05:42:47.845Z,31.40
2023-01-23T05:45:46.702Z,29.60
2023-01-23T05:48:39.609Z,33.10
2023-01-23T05:51:34.130Z,29.00
2023-01-23T05:54:26.234Z,31.00
2023-01-23T05:57:19.288Z,31.40
2023-01-23T06:00:15.623Z,29.00
2023-01-23T06:03:08.853Z,32.80
2023-01-23T06:06:05.276Z,31.50
2023-01-23T06:08:51.058Z,33.30
2023-01-23T06:11:43.949Z,27.90
2023-01-23T06:14:36.138Z,25.00
2023-01-23T06:17:30.634Z,25.50
2023-01-23T06:20:23.725Z,26.30
2023-01-23T06:23:16.737Z,25.20
2023-01-23T06:26:10.659Z,26.40
2023-01-23T06:29:03.430Z,27.50
2023-01-23T06:31:56.369Z,28.50
2023-01-23T06:34:49.308Z,24.00
2023-01-23T06:37:42.552Z,25.50
2023-01-23T06:40:36.188Z,22.80
2023-01-23T06:43:29.866Z,21.40
2023-01-23T06:46:23.001Z,24.50
2023-01-23T06:49:15.995Z,26.20
2023-01-23T06:52:09.367Z,27.20
2023-01-23T06:55:02.052Z,25.20
2023-01-23T06:57:55.751Z,29.50
2023-01-23T07:00:48.781Z,24.20
2023-01-23T07:03:42.142Z,27.40
2023-01-23T07:06:35.271Z,24.10
2023-01-23T07:09:29.075Z,25.10
2023-01-23T07:12:25.388Z,21.60
2023-01-23T07:15:13.973Z,21.90
2023-01-23T07:18:07.045Z,24.20
2023-01-23T07:21:02.060Z,22.50
2023-01-23T07:23:54.808Z,20.60
2023-01-23T07:26:37.790Z,22.10
2023-01-23T07:29:31.177Z,20.60
2023-01-23T07:32:24.022Z,21.20
2023-01-23T07:35:16.962Z,20.50
2023-01-23T07:38:10.043Z,19.50
2023-01-23T07:41:03.506Z,19.20
2023-01-23T07:43:50.423Z,20.90
2023-01-23T07:46:43.816Z,20.90
2023-01-23T07:49:36.786Z,23.20
2023-01-23T07:52:29.935Z,22.70
2023-01-23T07:55:23.019Z,22.00
2023-01-23T07:58:16.213Z,20.30
2023-01-23T08:01:17.594Z,19.90
2023-01-23T08:04:10.723Z,18.20
2023-01-23T08:07:03.971Z,19.60
2023-01-23T08:09:57.109Z,20.70
2023-01-23T08:12:54.591Z,21.00
2023-01-23T08:15:48.431Z,19.50
2023-01-23T08:18:41.614Z,20.00
2023-01-23T08:21:34.945Z,22.60
2023-01-23T08:24:25.343Z,19.50
2023-01-23T08:27:15.259Z,21.30
2023-01-23T08:30:12.849Z,24.20
2023-01-23T08:32:58.336Z,24.40
2023-01-23T08:35:54.499Z,32.80
2023-01-23T08:38:47.678Z,23.30
2023-01-23T08:41:41.164Z,21.40
2023-01-23T08:44:34.424Z,19.80
2023-01-23T08:47:27.670Z,20.00
2023-01-23T08:50:20.350Z,20.30
2023-01-23T08:53:13.964Z,18.40
2023-01-23T08:56:09.736Z,21.50
2023-01-23T08:59:02.679Z,18.30
2023-01-23T09:01:55.647Z,19.60
2023-01-23T09:04:42.520Z,19.00
2023-01-23T09:07:38.149Z,20.00
2023-01-23T09:10:30.996Z,20.60
2023-01-23T09:13:23.872Z,21.20
2023-01-23T09:16:17.395Z,21.80
2023-01-23T09:19:02.642Z,20.10
2023-01-23T09:21:58.037Z,22.90
2023-01-23T09:24:50.937Z,23.70
2023-01-23T09:27:44.024Z,24.00
2023-01-23T09:30:37.286Z,21.70
2023-01-23T09:33:30.511Z,19.50
2023-01-23T09:36:37.541Z,21.60
2023-01-23T09:39:33.507Z,18.50
2023-01-23T09:42:34.638Z,21.10
2023-01-23T09:45:24.635Z,21.50
2023-01-23T09:48:28.465Z,20.80
2023-01-23T09:51:20.327Z,24.10
2023-01-23T09:54:23.782Z,22.50
2023-01-23T09:57:22.555Z,25.80
2023-01-23T10:00:23.870Z,26.60
2023-01-23T10:03:18.250Z,25.10
2023-01-23T10:06:21.811Z,25.40
2023-01-23T10:09:32.194Z,25.30
2023-01-23T10:12:37.298Z,23.40
2023-01-23T10:15:41.969Z,26.30
2023-01-23T10:18:38.681Z,24.30
2023-01-23T10:21:38.572Z,25.50
2023-01-23T10:24:47.860Z,30.60
2023-01-23T10:27:44.471Z,31.40
2023-01-23T10:30:39.782Z,31.40
2023-01-23T10:33:36.082Z,27.80
2023-01-23T10:36:47.636Z,28.60
2023-01-23T10:39:56.119Z,28.00
2023-01-23T10:42:49.271Z,26.20
2023-01-23T10:45:43.578Z,24.70
2023-01-23T10:48:43.767Z,23.30
2023-01-23T10:51:48.685Z,27.00
2023-01-23T10:54:49.663Z,28.50
2023-01-23T10:58:06.948Z,30.70
2023-01-23T11:03:50.384Z,39.30
2023-01-23T11:06:43.159Z,37.80
2023-01-23T11:09:56.762Z,34.40
2023-01-23T11:12:54.206Z,34.70
2023-01-23T11:15:51.302Z,31.90
2023-01-23T11:18:44.392Z,31.10
2023-01-23T11:21:53.423Z,36.00
2023-01-23T11:24:46.503Z,37.30
2023-01-23T11:27:40.060Z,46.60
2023-01-23T11:30:40.047Z,50.40
2023-01-23T11:33:33.591Z,60.90
2023-01-23T11:36:45.837Z,48.20
2023-01-23T11:39:51.643Z,40.20
2023-01-23T11:42:47.799Z,34.50
2023-01-23T11:45:47.792Z,34.60
2023-01-23T11:48:52.637Z,36.60
2023-01-23T11:51:55.957Z,34.70
2023-01-23T11:55:05.105Z,35.90
2023-01-23T11:58:04.029Z,38.10
2023-01-23T12:01:08.825Z,52.20
2023-01-23T12:04:33.426Z,146.50
2023-01-23T12:07:22.049Z,122.30
2023-01-23T12:10:25.455Z,153.60
2023-01-23T12:13:37.596Z,78.90
2023-01-23T12:16:41.276Z,65.90
2023-01-23T12:20:03.136Z,61.00
2023-01-23T12:23:08.279Z,69.50
2023-01-23T12:25:57.512Z,63.40
2023-01-23T12:29:07.263Z,66.10
2023-01-23T12:32:05.997Z,90.90
2023-01-23T12:35:05.610Z,63.20
2023-01-23T12:38:14.303Z,59.10
2023-01-23T12:41:10.658Z,55.20
2023-01-23T12:44:03.373Z,55.80
2023-01-23T12:47:00.392Z,52.20
2023-01-23T12:49:57.953Z,58.70
2023-01-23T12:52:55.140Z,56.80
2023-01-23T12:55:59.685Z,49.00
2023-01-23T12:58:49.709Z,42.40
2023-01-23T13:01:56.822Z,42.60
2023-01-23T13:05:06.697Z,44.60
2023-01-23T13:08:04.376Z,44.20
2023-01-23T13:11:28.735Z,44.90
2023-01-23T13:14:32.851Z,46.70
2023-01-23T13:17:39.274Z,50.30
2023-01-23T13:20:53.723Z,51.00
2023-01-23T13:23:46.852Z,52.30
2023-01-23T13:26:39.928Z,54.80
2023-01-23T13:29:49.365Z,49.60
2023-01-23T13:32:43.736Z,51.80
2023-01-23T13:35:56.373Z,49.10
2023-01-23T13:39:25.481Z,46.20
2023-01-23T13:42:46.765Z,47.20
2023-01-23T13:45:37.152Z,53.30
2023-01-23T14:23:26.520Z,52.30
2023-01-23T14:26:16.751Z,44.40
2023-01-23T14:29:24.156Z,50.00
2023-01-23T14:32:25.574Z,52.40
2023-01-23T14:35:25.263Z,45.70
2023-01-23T14:38:24.683Z,42.50
2023-01-23T14:41:28.013Z,45.10
2023-01-23T14:44:27.502Z,46.50
2023-01-23T14:47:15.651Z,44.20
2023-01-23T14:50:17.254Z,49.90
2023-01-23T14:53:07.120Z,51.40
2023-01-23T14:56:01.985Z,61.10
2023-01-23T14:58:53.581Z,52.50
2023-01-23T15:01:56.198Z,49.00
2023-01-23T15:04:33.818Z,45.40
2023-01-23T15:07:25.823Z,48.10
2023-01-23T15:10:25.501Z,54.30
2023-01-23T15:13:14.291Z,73.20
2023-01-23T15:16:19.711Z,67.90
2023-01-23T15:19:24.423Z,95.20
2023-01-23T15:22:09.110Z,81.00
2023-01-23T15:25:20.952Z,88.00
2023-01-23T15:28:40.590Z,96.60
2023-01-23T15:31:32.300Z,100.40
2023-01-23T15:34:26.345Z,108.60
2023-01-23T15:37:25.973Z,107.80
2023-01-23T15:40:27.703Z,107.00
2023-01-23T15:43:08.809Z,93.20
2023-01-23T15:46:01.844Z,109.60
2023-01-23T15:48:40.362Z,113.10
2023-01-23T15:51:33.600Z,125.90
2023-01-23T15:54:21.305Z,140.00
2023-01-23T15:57:07.664Z,141.30
2023-01-23T15:59:57.206Z,131.10
2023-01-23T16:02:39.373Z,120.30
2023-01-23T16:05:17.359Z,146.10
2023-01-23T16:07:57.741Z,108.90
2023-01-23T16:10:51.371Z,116.30
2023-01-23T16:13:44.496Z,107.70
2023-01-23T16:16:36.497Z,130.80
2023-01-23T16:19:29.273Z,107.80
2023-01-23T16:22:26.989Z,138.10
2023-01-23T16:25:41.895Z,113.30
2023-01-23T16:28:35.858Z,120.00
2023-01-23T16:31:15.201Z,113.90
2023-01-23T16:34:01.066Z,137.60
2023-01-23T16:36:36.610Z,122.70
2023-01-23T16:39:24.659Z,119.20
2023-01-23T16:42:23.612Z,112.50
2023-01-23T16:45:23.256Z,119.20
2023-01-23T16:48:01.428Z,116.90
2023-01-23T16:50:44.006Z,117.90
2023-01-23T16:53:33.064Z,96.20
2023-01-23T16:56:30.949Z,86.10
2023-01-23T16:59:29.611Z,94.40
2023-01-23T17:02:29.089Z,105.70
2023-01-23T17:05:22.591Z,112.00
2023-01-23T17:08:12.601Z,96.00
2023-01-23T17:10:46.962Z,85.40
2023-01-23T17:13:35.893Z,96.60
2023-01-23T17:16:31.315Z,102.80
2023-01-23T17:19:30.776Z,113.20
2023-01-23T17:22:24.936Z,99.50
2023-01-23T17:25:20.372Z,112.00
2023-01-23T17:28:11.155Z,78.50
2023-01-23T17:30:48.286Z,80.60
2023-01-23T17:33:42.665Z,91.00
2023-01-23T17:36:36.539Z,72.80
2023-01-23T17:39:25.804Z,89.00
2023-01-23T17:42:10.799Z,94.60
2023-01-23T17:45:06.707Z,70.90
2023-01-23T17:47:42.760Z,65.10
2023-01-23T17:50:27.208Z,65.50
2023-01-23T17:52:59.955Z,70.20
2023-01-23T17:55:54.123Z,66.60
2023-01-23T17:58:47.066Z,60.70
2023-01-23T18:01:34.310Z,59.70
2023-01-23T18:04:21.326Z,55.60
2023-01-23T18:07:16.781Z,58.90
2023-01-23T18:10:12.823Z,64.90
2023-01-23T18:13:21.616Z,70.60
2023-01-23T18:16:20.268Z,76.00
2023-01-23T18:19:18.401Z,75.20
2023-01-23T18:22:14.481Z,78.40
2023-01-23T18:25:14.164Z,77.30
2023-01-23T18:28:06.438Z,78.30
2023-01-23T18:31:00.525Z,78.00
2023-01-23T18:34:03.123Z,84.20
2023-01-23T18:37:00.904Z,82.00
2023-01-23T18:40:00.424Z,78.90
2023-01-23T18:45:28.074Z,89.00
2023-01-23T18:48:25.919Z,103.70
2023-01-23T18:51:33.162Z,99.10
2023-01-23T18:54:26.737Z,81.90
2023-01-23T18:57:31.411Z,73.40
2023-01-23T19:00:24.210Z,71.00
2023-01-23T19:03:12.190Z,74.50
2023-01-23T19:05:45.476Z,74.70
2023-01-23T19:08:39.120Z,79.20
2023-01-23T19:11:33.556Z,74.10
2023-01-23T19:14:51.356Z,72.00
2023-01-23T19:17:52.593Z,76.70
2023-01-23T19:20:45.727Z,71.10
2023-01-23T19:23:33.935Z,68.50
2023-01-23T19:26:15.116Z,65.50
2023-01-23T19:29:21.091Z,55.30
2023-01-23T19:32:12.234Z,54.10
2023-01-23T19:35:13.781Z,43.60
2023-01-23T19:38:00.467Z,40.90
2023-01-23T19:40:53.438Z,41.40
2023-01-23T19:43:44.654Z,41.60
2023-01-23T19:46:21.310Z,36.30
2023-01-23T19:49:06.802Z,35.40
2023-01-23T19:51:49.589Z,38.90
2023-01-23T19:54:42.311Z,36.20
2023-01-23T19:57:35.076Z,42.80
2023-01-23T20:00:29.669Z,45.80
2023-01-23T20:03:22.456Z,42.00
2023-01-23T20:06:00.181Z,37.20
2023-01-23T20:08:40.108Z,33.20
2023-01-23T20:11:16.128Z,30.30
2023-01-23T20:13:52.024Z,31.90
2023-01-23T20:16:45.693Z,33.80
2023-01-23T20:19:39.746Z,36.70
2023-01-23T20:22:19.328Z,38.50
2023-01-23T20:25:05.011Z,34.20
2023-01-23T20:27:50.744Z,30.20
2023-01-23T20:30:43.561Z,29.40
2023-01-23T20:33:37.007Z,30.40
2023-01-23T20:36:29.917Z,30.50
2023-01-23T20:39:16.642Z,29.50
2023-01-23T20:42:02.020Z,26.50
2023-01-23T20:44:54.852Z,27.20
2023-01-23T20:47:51.238Z,29.20
2023-01-23T20:50:31.455Z,25.40
2023-01-23T20:53:34.241Z,25.10
2023-01-23T20:56:20.009Z,30.90
2023-01-23T20:59:25.236Z,29.20
2023-01-23T21:02:25.831Z,31.90
2023-01-23T21:05:19.452Z,28.80
2023-01-23T21:08:09.777Z,29.10
2023-01-23T21:10:56.425Z,29.00
2023-01-23T21:13:54.647Z,31.80
2023-01-23T21:19:49.286Z,30.90
2023-01-23T21:22:42.119Z,31.00
2023-01-23T21:25:15.127Z,29.90
2023-01-23T21:28:09.757Z,25.30
2023-01-23T21:30:54.297Z,25.50
2023-01-23T21:33:47.618Z,27.70
2023-01-23T21:36:41.919Z,21.90
2023-01-23T21:39:35.368Z,25.10
2023-01-23T21:42:29.350Z,24.20
2023-01-23T21:45:14.876Z,22.80
2023-01-23T21:48:08.245Z,23.00
2023-01-23T21:51:08.739Z,24.60
2023-01-23T21:54:01.702Z,22.10
2023-01-23T21:56:47.465Z,23.40
2023-01-23T21:59:40.170Z,23.20
2023-01-23T22:02:35.678Z,22.60
2023-01-23T22:05:12.741Z,22.00
2023-01-23T22:08:07.070Z,22.00
2023-01-23T22:11:00.484Z,22.40
2023-01-23T22:13:53.342Z,22.80
2023-01-23T22:16:49.756Z,23.30
2023-01-23T22:19:36.390Z,23.70
2023-01-23T22:22:28.323Z,21.60
2023-01-23T22:25:22.097Z,24.80
2023-01-23T22:28:09.123Z,24.70
2023-01-23T22:31:08.074Z,23.30
2023-01-23T22:34:00.891Z,23.70
2023-01-23T22:36:43.681Z,23.10
2023-01-23T22:39:30.434Z,26.50
2023-01-23T22:42:23.206Z,26.40
2023-01-23T22:45:16.354Z,26.60
2023-01-23T22:48:09.610Z,29.20
2023-01-23T22:50:55.415Z,29.00
2023-01-23T22:54:08.806Z,28.00
2023-01-23T22:57:00.694Z,38.60
2023-01-23T22:59:33.546Z,27.80
2023-01-23T23:02:26.226Z,27.90
2023-01-23T23:05:19.592Z,25.50
2023-01-23T23:08:13.714Z,25.50
2023-01-23T23:11:08.469Z,28.60
2023-01-23T23:14:03.283Z,27.40
2023-01-23T23:16:48.722Z,26.10
2023-01-23T23:19:41.518Z,29.40
2023-01-23T23:22:34.742Z,29.60
2023-01-23T23:25:20.795Z,28.50
2023-01-23T23:28:13.843Z,28.30
2023-01-23T23:31:07.071Z,31.00
2023-01-23T23:33:40.596Z,31.30
2023-01-23T23:36:33.273Z,31.00
2023-01-23T23:39:14.973Z,34.90
2023-01-23T23:42:06.592Z,32.60
2023-01-23T23:44:59.585Z,32.00
2023-01-23T23:47:46.140Z,34.00
2023-01-23T23:50:39.077Z,36.70
2023-01-23T23:53:32.155Z,36.70
2023-01-23T23:56:23.175Z,33.30
2023-01-23T23:59:18.148Z,37.00
